Time;durP1;ratioP1;P1;durP2;ratioP2;P2;SDS_P1;SDS_P2;PMS_P1;PMS_P2;Temp;Humidity;BMP_temperature;BMP_pressure;BME280_temperature;BME280_humidity;BME280_pressure;Samples;Min_cycle;Max_cycle;Signal;HPM_P1;HPM_P2
2023/06/18 00:01:37;;;;;;;28.20;25.20;;;;;;;19.02;64.48;99700.27;103759;1251;96431;-66
2023/06/18 00:04:04;;;;;;;29.60;26.40;;;;;;;18.96;64.71;99701.77;103574;1250;138569;-65
2023/06/18 00:06:32;;;;;;;29.60;26.50;;;;;;;18.89;64.92;99704.84;103789;1250;96436;-66
2023/06/18 00:08:59;;;;;;;29.50;26.60;;;;;;;18.81;65.13;99711.73;103764;1251;110812;-65
2023/06/18 00:11:26;;;;;;;30.30;27.10;;;;;;;18.74;65.35;99713.30;104382;1250;139740;-67
2023/06/18 00:13:53;;;;;;;30.30;27.20;;;;;;;18.69;65.62;99715.64;104230;1251;96407;-66
2023/06/18 00:16:20;;;;;;;30.90;27.70;;;;;;;18.65;65.76;99712.17;103664;1251;138983;-66
2023/06/18 00:18:47;;;;;;;31.20;28.10;;;;;;;18.63;66.06;99713.92;104406;1250;94843;-67
2023/06/18 00:21:14;;;;;;;30.00;26.90;;;;;;;18.62;66.05;99714.17;103825;1250;108986;-66
2023/06/18 00:23:42;;;;;;;28.90;26.00;;;;;;;18.61;66.12;99712.32;103655;1251;107852;-65
2023/06/18 00:26:09;;;;;;;28.40;25.50;;;;;;;18.58;66.20;99710.41;103682;1251;96433;-66
2023/06/18 00:28:40;;;;;;;28.10;25.20;;;;;;;18.56;66.32;99707.26;103797;1251;138986;-67
2023/06/18 00:31:07;;;;;;;28.60;25.50;;;;;;;18.53;66.34;99707.44;103620;1251;96532;-65
2023/06/18 00:33:34;;;;;;;26.60;24.00;;;;;;;18.51;66.49;99708.46;104033;1251;138484;-66
2023/06/18 00:36:07;;;;;;;28.40;25.50;;;;;;;18.52;66.56;99711.57;103578;1250;107317;-66
2023/06/18 00:38:36;;;;;;;27.80;25.00;;;;;;;18.53;66.68;99716.46;104685;1250;95059;-66
2023/06/18 00:41:03;;;;;;;27.40;24.70;;;;;;;18.53;66.63;99718.22;104076;1250;138438;-66
2023/06/18 00:43:31;;;;;;;26.90;24.10;;;;;;;18.55;66.71;99721.20;104238;1249;96436;-67
2023/06/18 00:46:00;;;;;;;26.60;23.40;;;;;;;18.55;66.75;99718.55;104248;1250;138631;-67
2023/06/18 00:48:28;;;;;;;25.60;23.20;;;;;;;18.56;66.99;99716.58;104532;1253;108856;-66
2023/06/18 00:50:55;;;;;;;26.00;23.40;;;;;;;18.55;66.83;99719.58;104300;1250;97786;-66
2023/06/18 00:53:22;;;;;;;25.80;23.30;;;;;;;18.57;66.96;99719.10;103626;1253;139163;-67
2023/06/18 00:55:49;;;;;;;28.10;23.30;;;;;;;18.55;66.80;99722.79;104614;1250;97601;-66
2023/06/18 00:58:17;;;;;;;26.90;24.10;;;;;;;18.51;66.89;99726.62;103746;1249;140838;-67
2023/06/18 01:00:44;;;;;;;26.40;23.70;;;;;;;18.48;66.93;99726.12;104173;1251;108107;-66
2023/06/18 01:03:16;;;;;;;25.50;22.80;;;;;;;18.46;67.06;99723.11;104284;1251;97784;-67
2023/06/18 01:05:45;;;;;;;25.60;23.10;;;;;;;18.45;67.28;99725.43;103718;1253;107322;-66
2023/06/18 01:08:14;;;;;;;27.40;24.70;;;;;;;18.44;67.36;99720.77;103666;1253;97689;-66
2023/06/18 01:10:42;;;;;;;27.50;24.80;;;;;;;18.42;67.44;99721.83;104248;1250;138609;-66
2023/06/18 01:13:15;;;;;;;25.60;23.00;;;;;;;18.39;67.54;99721.84;103598;1251;107285;-66
2023/06/18 01:15:43;;;;;;;26.70;23.90;;;;;;;18.38;67.55;99722.45;103740;1250;138964;-67
2023/06/18 01:18:12;;;;;;;28.50;24.10;;;;;;;18.38;67.80;99719.82;103927;1250;108298;-67
2023/06/18 01:20:41;;;;;;;24.60;22.20;;;;;;;18.39;67.94;99717.45;103878;1251;97787;-67
2023/06/18 01:23:17;;;;;;;26.60;23.90;;;;;;;18.41;67.95;99716.98;103749;1249;140240;-67
2023/06/18 01:25:46;;;;;;;25.50;23.00;;;;;;;18.40;68.03;99711.38;104126;1250;107170;-66
2023/06/18 01:28:15;;;;;;;25.20;22.70;;;;;;;18.39;68.12;99713.02;104670;1249;138778;-67
2023/06/18 01:30:42;;;;;;;25.00;22.50;;;;;;;18.39;68.31;99712.48;104120;1250;107107;-66
2023/06/18 01:33:12;;;;;;;25.20;22.70;;;;;;;18.40;68.30;99712.43;103698;1249;97785;-67
2023/06/18 01:35:41;;;;;;;24.20;21.80;;;;;;;18.40;68.30;99715.09;103704;1250;138704;-66
2023/06/18 01:38:25;;;;;;;25.10;22.50;;;;;;;18.39;68.53;99715.11;103647;1251;108060;-66
2023/06/18 01:40:59;;;;;;;26.10;23.50;;;;;;;18.38;68.41;99711.51;103838;1251;138598;-66
2023/06/18 01:43:35;;;;;;;26.30;23.70;;;;;;;18.36;68.49;99712.05;103739;1250;108179;-66
2023/06/18 01:46:05;;;;;;;25.80;23.00;;;;;;;18.33;68.67;99713.34;103511;1251;139058;-66
2023/06/18 01:48:37;;;;;;;24.70;22.30;;;;;;;18.30;68.76;99711.42;103716;1251;110841;-66
2023/06/18 01:51:06;;;;;;;24.80;22.20;;;;;;;18.28;68.89;99716.70;103563;1250;107073;-66
2023/06/18 01:53:36;;;;;;;26.40;23.80;;;;;;;18.26;68.99;99719.47;103601;1251;138457;-67
2023/06/18 01:56:04;;;;;;;25.00;22.60;;;;;;;18.22;69.02;99720.27;103675;1251;107854;-66
2023/06/18 01:58:33;;;;;;;25.00;22.50;;;;;;;18.21;69.13;99723.73;103972;1251;138991;-66
